createdAt,value
2023-05-05T00:00:59.171Z,2.44
2023-05-05T00:01:59.201Z,2.04
2023-05-05T00:02:59.262Z,2.09
2023-05-05T00:03:59.283Z,2.36
2023-05-05T00:04:59.158Z,2.34
2023-05-05T00:05:59.170Z,1.88
2023-05-05T00:06:59.150Z,2.27
2023-05-05T00:07:59.142Z,2.11
2023-05-05T00:08:59.132Z,2.10
2023-05-05T00:09:59.152Z,2.38
2023-05-05T00:10:59.127Z,2.35
2023-05-05T00:11:59.096Z,2.45
2023-05-05T00:12:59.121Z,2.06
2023-05-05T00:13:59.105Z,2.13
2023-05-05T00:14:59.127Z,2.22
2023-05-05T00:15:59.121Z,2.65
2023-05-05T00:16:59.129Z,2.37
2023-05-05T00:17:59.088Z,2.01
2023-05-05T00:18:59.060Z,1.62
2023-05-05T00:19:59.082Z,1.99
2023-05-05T00:20:59.076Z,1.72
2023-05-05T00:21:59.081Z,2.26
2023-05-05T00:22:59.055Z,2.39
2023-05-05T00:23:59.041Z,2.45
2023-05-05T00:24:59.044Z,2.47
2023-05-05T00:25:59.014Z,2.23
2023-05-05T00:26:59.028Z,2.18
2023-05-05T00:27:59.022Z,2.14
2023-05-05T00:28:59.015Z,2.50
2023-05-05T00:29:58.993Z,2.33
2023-05-05T00:30:59.025Z,1.96
2023-05-05T00:31:59.008Z,1.98
2023-05-05T00:32:59.005Z,2.38
2023-05-05T00:33:58.987Z,2.05
2023-05-05T00:34:58.997Z,2.58
2023-05-05T00:35:59.031Z,2.75
2023-05-05T00:36:58.974Z,2.62
2023-05-05T00:37:58.939Z,2.24
2023-05-05T00:38:58.938Z,2.60
2023-05-05T00:39:58.940Z,2.34
2023-05-05T00:40:58.964Z,2.18
2023-05-05T00:41:58.923Z,2.48
2023-05-05T00:42:58.938Z,2.16
2023-05-05T00:43:58.934Z,2.27
2023-05-05T00:44:58.908Z,2.65
2023-05-05T00:45:58.999Z,2.65
2023-05-05T00:46:58.906Z,2.06
2023-05-05T00:47:58.934Z,2.46
2023-05-05T00:48:58.906Z,2.14
2023-05-05T00:49:58.874Z,2.14
2023-05-05T00:50:58.885Z,2.80
2023-05-05T00:51:58.865Z,2.52
2023-05-05T00:52:58.867Z,2.12
2023-05-05T00:53:58.889Z,2.59
2023-05-05T00:54:58.834Z,2.36
2023-05-05T00:55:58.863Z,2.45
2023-05-05T00:56:58.807Z,2.80
2023-05-05T00:57:58.805Z,2.36
2023-05-05T00:58:58.803Z,2.05
2023-05-05T00:59:58.815Z,2.72
2023-05-05T01:00:58.843Z,2.32
2023-05-05T01:01:58.824Z,2.90
2023-05-05T01:02:58.891Z,2.48
2023-05-05T01:03:58.884Z,2.02
2023-05-05T01:04:58.785Z,2.32
2023-05-05T01:05:58.758Z,2.35
2023-05-05T01:06:58.761Z,2.04
2023-05-05T01:07:58.759Z,2.32
2023-05-05T01:08:58.757Z,2.66
2023-05-05T01:10:15.079Z,2.25
2023-05-05T01:10:59.758Z,2.65
2023-05-05T01:11:58.751Z,2.34
2023-05-05T01:12:58.785Z,2.22
2023-05-05T01:13:58.768Z,2.94
2023-05-05T01:14:58.711Z,2.50
2023-05-05T01:15:58.741Z,2.09
2023-05-05T01:16:58.702Z,2.30
2023-05-05T01:17:58.766Z,2.04
2023-05-05T01:18:58.686Z,2.37
2023-05-05T01:19:58.709Z,2.49
2023-05-05T01:20:58.692Z,2.20
2023-05-05T01:21:58.660Z,2.27
2023-05-05T01:22:58.667Z,2.09
2023-05-05T01:23:58.658Z,2.89
2023-05-05T01:24:58.643Z,2.36
2023-05-05T01:25:58.633Z,2.75
2023-05-05T01:26:58.644Z,2.13
2023-05-05T01:27:58.694Z,2.93
2023-05-05T01:28:58.698Z,2.21
2023-05-05T01:29:58.704Z,2.34
2023-05-05T01:30:58.712Z,3.02
2023-05-05T01:31:58.759Z,2.17
2023-05-05T01:32:58.695Z,2.41
2023-05-05T01:33:58.725Z,2.55
2023-05-05T01:34:58.704Z,2.67
2023-05-05T01:35:58.757Z,2.29
2023-05-05T01:36:58.711Z,3.13
2023-05-05T01:37:58.738Z,2.63
2023-05-05T01:38:58.757Z,2.56
2023-05-05T01:39:58.751Z,2.44
2023-05-05T01:40:58.791Z,2.47
2023-05-05T01:41:58.743Z,2.69
2023-05-05T01:42:58.770Z,2.90
2023-05-05T01:43:58.887Z,2.62
2023-05-05T01:44:58.970Z,1.88
2023-05-05T01:45:59.102Z,2.29
2023-05-05T01:46:59.055Z,2.21
2023-05-05T01:47:59.120Z,2.44
2023-05-05T01:48:59.096Z,2.68
2023-05-05T01:49:59.113Z,2.58
2023-05-05T01:50:59.101Z,2.25
2023-05-05T01:51:59.178Z,1.96
2023-05-05T01:52:59.169Z,2.92
2023-05-05T01:53:59.160Z,2.63
2023-05-05T01:54:59.192Z,2.08
2023-05-05T01:55:59.198Z,2.06
2023-05-05T01:56:59.210Z,2.26
2023-05-05T01:57:59.280Z,2.03
2023-05-05T01:58:59.262Z,2.50
2023-05-05T01:59:59.307Z,2.55
2023-05-05T02:00:59.348Z,2.53
2023-05-05T02:01:59.312Z,2.65
2023-05-05T02:02:59.368Z,3.03
2023-05-05T02:03:59.371Z,2.73
2023-05-05T02:04:59.491Z,2.15
2023-05-05T02:05:59.520Z,2.41
2023-05-05T02:06:59.546Z,2.57
2023-05-05T02:07:59.496Z,2.67
2023-05-05T02:08:59.504Z,2.78
2023-05-05T02:09:59.512Z,2.68
2023-05-05T02:10:59.524Z,2.32
2023-05-05T02:11:59.511Z,1.95
2023-05-05T02:12:59.565Z,2.63
2023-05-05T02:13:59.628Z,2.41
2023-05-05T02:14:59.635Z,2.58
2023-05-05T02:15:59.780Z,2.24
2023-05-05T02:16:59.842Z,2.10
2023-05-05T02:17:59.967Z,2.49
2023-05-05T02:18:59.948Z,2.44
2023-05-05T02:19:59.970Z,2.63
2023-05-05T02:20:59.958Z,2.63
2023-05-05T02:21:59.992Z,2.54
2023-05-05T02:23:00.024Z,2.70
2023-05-05T02:24:00.141Z,2.48
2023-05-05T02:25:00.188Z,2.41
2023-05-05T02:26:00.195Z,2.43
2023-05-05T02:27:00.197Z,2.46
2023-05-05T02:28:00.254Z,2.59
2023-05-05T02:29:00.245Z,2.01
2023-05-05T02:30:00.244Z,2.42
2023-05-05T02:31:00.419Z,2.31
2023-05-05T02:32:00.350Z,2.64
2023-05-05T02:33:00.422Z,2.65
2023-05-05T02:34:00.378Z,2.45
2023-05-05T02:35:00.398Z,2.04
2023-05-05T02:36:00.430Z,2.70
2023-05-05T02:37:00.519Z,2.25
2023-05-05T02:38:00.528Z,2.73
2023-05-05T02:39:00.531Z,2.33
2023-05-05T02:40:00.532Z,2.86
2023-05-05T02:41:00.585Z,2.30
2023-05-05T02:42:00.582Z,2.62
2023-05-05T02:43:00.623Z,2.52
2023-05-05T02:44:00.619Z,2.27
2023-05-05T02:45:00.612Z,2.59
2023-05-05T02:46:00.695Z,2.59
2023-05-05T02:47:00.663Z,2.72
2023-05-05T02:48:00.666Z,2.45
2023-05-05T02:49:00.669Z,2.49
2023-05-05T02:50:00.696Z,2.42
2023-05-05T02:51:00.705Z,2.62
2023-05-05T02:52:00.703Z,2.18
2023-05-05T02:53:00.720Z,2.38
2023-05-05T02:54:00.711Z,2.66
2023-05-05T02:55:00.849Z,2.32
2023-05-05T02:56:01.773Z,2.64
2023-05-05T02:57:00.743Z,2.90
2023-05-05T02:58:00.781Z,2.12
2023-05-05T02:59:00.773Z,2.53
2023-05-05T03:00:00.821Z,2.59
2023-05-05T03:01:00.828Z,2.38
2023-05-05T03:02:00.841Z,2.66
2023-05-05T03:03:00.985Z,2.42
2023-05-05T03:04:00.876Z,2.63
2023-05-05T03:05:00.887Z,2.42
2023-05-05T03:06:00.864Z,2.32
2023-05-05T03:07:00.867Z,2.30
2023-05-05T03:08:00.891Z,2.07
2023-05-05T03:09:00.905Z,2.98
2023-05-05T03:10:00.885Z,2.51
2023-05-05T03:11:00.934Z,2.34
2023-05-05T03:12:00.929Z,2.45
2023-05-05T03:13:01.084Z,2.33
2023-05-05T03:14:01.011Z,2.37
2023-05-05T03:15:01.025Z,2.55
2023-05-05T03:16:01.080Z,2.65
2023-05-05T03:17:01.064Z,2.39
2023-05-05T03:18:01.121Z,2.49
2023-05-05T03:19:01.105Z,2.86
2023-05-05T03:20:04.754Z,2.78
2023-05-05T03:21:01.100Z,2.29
2023-05-05T03:22:01.104Z,2.43
2023-05-05T03:23:01.104Z,2.55
2023-05-05T03:24:01.084Z,2.36
2023-05-05T03:25:01.067Z,2.35
2023-05-05T03:26:01.083Z,3.60
2023-05-05T03:27:01.049Z,2.43
2023-05-05T03:28:01.032Z,2.80
2023-05-05T03:29:01.058Z,2.52
2023-05-05T03:30:01.037Z,2.38
2023-05-05T03:31:01.014Z,2.60
2023-05-05T03:32:01.118Z,2.79
2023-05-05T03:33:01.095Z,2.63
2023-05-05T03:34:01.014Z,2.60
2023-05-05T03:35:00.999Z,2.00
2023-05-05T03:36:01.004Z,2.26
2023-05-05T03:37:01.003Z,2.94
2023-05-05T03:38:00.979Z,2.73
2023-05-05T03:39:00.991Z,2.27
2023-05-05T03:40:00.967Z,2.50
2023-05-05T03:41:00.948Z,2.58
2023-05-05T03:42:00.964Z,3.04
2023-05-05T03:43:00.952Z,2.24
2023-05-05T03:44:00.926Z,2.78
2023-05-05T03:45:00.949Z,2.69
2023-05-05T03:46:00.953Z,3.02
2023-05-05T03:47:00.923Z,2.57
2023-05-05T03:48:00.936Z,2.43
2023-05-05T03:49:00.939Z,2.32
2023-05-05T03:50:00.937Z,2.76
2023-05-05T03:51:00.919Z,2.51
2023-05-05T03:52:00.885Z,2.33
2023-05-05T03:53:00.901Z,2.64
2023-05-05T03:54:00.881Z,2.20
2023-05-05T03:55:00.909Z,2.35
2023-05-05T03:56:02.020Z,2.48
2023-05-05T03:57:00.850Z,2.16
2023-05-05T03:58:00.860Z,2.35
2023-05-05T03:59:00.941Z,2.56
2023-05-05T04:00:00.854Z,2.30
2023-05-05T04:01:00.871Z,2.56
2023-05-05T04:02:00.862Z,2.72
2023-05-05T04:03:00.961Z,2.94
2023-05-05T04:04:00.876Z,3.01
2023-05-05T04:05:00.832Z,2.54
2023-05-05T04:06:00.813Z,2.76
2023-05-05T04:07:00.782Z,3.43
2023-05-05T04:08:00.806Z,2.48
2023-05-05T04:09:00.803Z,2.43
2023-05-05T04:10:00.800Z,2.05
2023-05-05T04:11:00.781Z,2.77
2023-05-05T04:12:00.789Z,2.37
2023-05-05T04:13:00.909Z,2.58
2023-05-05T04:14:00.753Z,2.64
2023-05-05T04:15:00.768Z,2.86
2023-05-05T04:16:00.783Z,2.79
2023-05-05T04:17:00.750Z,2.79
2023-05-05T04:18:00.771Z,2.19
2023-05-05T04:19:00.756Z,2.81
2023-05-05T04:20:00.749Z,2.75
2023-05-05T04:21:00.705Z,2.84
2023-05-05T04:22:00.730Z,2.59
2023-05-05T04:23:00.687Z,2.74
2023-05-05T04:24:00.705Z,2.55
2023-05-05T04:25:00.696Z,2.79
2023-05-05T04:26:00.700Z,2.66
2023-05-05T04:27:00.691Z,2.76
2023-05-05T04:28:00.650Z,2.39
2023-05-05T04:29:00.680Z,2.59
2023-05-05T04:30:00.659Z,2.41
2023-05-05T04:31:00.708Z,2.57
2023-05-05T04:32:00.661Z,2.83
2023-05-05T04:33:00.648Z,2.45
2023-05-05T04:34:00.648Z,2.60
2023-05-05T04:35:00.646Z,3.23
2023-05-05T04:36:00.629Z,2.88
2023-05-05T04:37:00.654Z,2.62
2023-05-05T04:38:00.598Z,2.59
2023-05-05T04:39:00.687Z,2.69
2023-05-05T04:40:00.606Z,2.78
2023-05-05T04:41:00.588Z,2.86
2023-05-05T04:42:00.592Z,2.94
2023-05-05T04:43:00.609Z,2.64
2023-05-05T04:44:00.587Z,2.81
2023-05-05T04:45:00.557Z,3.02
2023-05-05T04:46:00.572Z,2.65
2023-05-05T04:47:00.532Z,2.52
2023-05-05T04:48:00.614Z,2.77
2023-05-05T04:49:00.555Z,2.67
2023-05-05T04:50:00.552Z,2.58
2023-05-05T04:51:00.570Z,2.57
2023-05-05T04:52:00.506Z,2.83
2023-05-05T04:53:00.514Z,2.26
2023-05-05T04:54:00.519Z,2.37
2023-05-05T04:55:00.478Z,2.58
2023-05-05T04:56:00.510Z,2.15
2023-05-05T04:57:00.483Z,2.52
2023-05-05T04:58:00.500Z,2.75
2023-05-05T04:59:00.440Z,2.19
2023-05-05T05:00:00.469Z,2.71
2023-05-05T05:01:00.486Z,2.76
2023-05-05T05:02:00.550Z,2.57
2023-05-05T05:03:00.639Z,2.71
2023-05-05T05:04:00.647Z,2.18
2023-05-05T05:05:00.580Z,2.56
2023-05-05T05:06:00.677Z,2.62
2023-05-05T05:07:00.703Z,2.69
2023-05-05T05:08:00.731Z,1.97
2023-05-05T05:09:00.761Z,2.65
2023-05-05T05:10:00.842Z,2.47
2023-05-05T05:11:00.840Z,2.43
2023-05-05T05:12:00.897Z,2.37
2023-05-05T05:13:00.932Z,2.64
2023-05-05T05:14:00.979Z,2.30
2023-05-05T05:15:01.017Z,2.34
2023-05-05T05:16:01.112Z,2.48
2023-05-05T05:17:01.102Z,2.32
2023-05-05T05:18:01.136Z,2.60
2023-05-05T05:19:01.743Z,2.39
2023-05-05T05:20:01.240Z,2.28
2023-05-05T05:21:01.222Z,2.06
2023-05-05T05:22:01.255Z,2.12
2023-05-05T05:23:01.312Z,2.76
2023-05-05T05:24:01.344Z,2.30
2023-05-05T05:25:01.398Z,2.23
2023-05-05T05:26:01.393Z,2.03
2023-05-05T05:27:01.464Z,2.12
2023-05-05T05:28:09.028Z,2.30
2023-05-05T05:29:02.480Z,2.27
2023-05-05T05:30:01.537Z,2.31
2023-05-05T05:31:01.550Z,2.41
2023-05-05T05:32:01.492Z,2.46
2023-05-05T05:33:01.489Z,2.34
2023-05-05T05:34:01.440Z,2.16
2023-05-05T05:35:01.473Z,2.25
2023-05-05T05:36:01.422Z,2.38
2023-05-05T05:37:01.444Z,2.50
2023-05-05T05:38:01.416Z,2.20
2023-05-05T05:39:01.427Z,2.31
2023-05-05T05:40:01.434Z,1.99
2023-05-05T05:41:01.455Z,2.39
2023-05-05T05:42:01.474Z,1.95
2023-05-05T05:43:01.564Z,2.23
2023-05-05T05:44:01.603Z,2.68
2023-05-05T05:45:01.667Z,2.46
2023-05-05T05:46:01.755Z,2.25
2023-05-05T05:47:01.753Z,2.15
2023-05-05T05:48:01.834Z,2.29
2023-05-05T05:49:01.820Z,2.75
2023-05-05T05:50:01.867Z,2.28
2023-05-05T05:51:01.898Z,2.17
2023-05-05T05:52:02.074Z,3.00
2023-05-05T05:53:01.948Z,2.18
2023-05-05T05:54:01.975Z,2.74
2023-05-05T05:55:02.084Z,3.10
2023-05-05T05:56:02.000Z,2.70
2023-05-05T05:57:02.035Z,2.77
2023-05-05T05:58:03.030Z,2.11
2023-05-05T05:59:02.061Z,2.71
2023-05-05T06:00:02.392Z,2.14
2023-05-05T06:01:02.066Z,2.39
2023-05-05T06:02:02.133Z,2.44
2023-05-05T06:03:02.144Z,2.49
2023-05-05T06:04:02.175Z,2.58
2023-05-05T06:05:02.106Z,2.57
2023-05-05T06:06:02.156Z,2.62
2023-05-05T06:07:02.562Z,2.36
2023-05-05T06:08:02.267Z,2.40
2023-05-05T06:09:02.239Z,2.61
2023-05-05T06:10:14.568Z,2.32
2023-05-05T06:11:03.241Z,2.71
2023-05-05T06:12:02.576Z,2.28
2023-05-05T06:13:02.234Z,2.36
2023-05-05T06:14:02.206Z,2.35
2023-05-05T06:15:02.191Z,2.33
2023-05-05T06:16:02.285Z,2.58
2023-05-05T06:17:02.172Z,2.33
2023-05-05T06:18:02.215Z,2.20
2023-05-05T06:19:02.202Z,2.30
2023-05-05T06:20:02.232Z,2.16
2023-05-05T06:21:02.303Z,2.66
2023-05-05T06:22:03.069Z,2.33
2023-05-05T06:23:02.418Z,2.30
2023-05-05T06:24:02.465Z,2.35
2023-05-05T06:25:02.520Z,2.22
2023-05-05T06:26:02.600Z,2.73
2023-05-05T06:27:02.666Z,2.34
2023-05-05T06:28:02.690Z,2.43
2023-05-05T06:29:02.741Z,2.37
2023-05-05T06:30:02.871Z,2.58
2023-05-05T06:31:02.874Z,2.04
2023-05-05T06:32:02.936Z,1.89
2023-05-05T06:33:02.993Z,2.27
2023-05-05T06:34:03.032Z,2.27
2023-05-05T06:35:03.074Z,2.43
2023-05-05T06:36:03.152Z,2.19
2023-05-05T06:37:03.593Z,2.39
2023-05-05T06:38:03.229Z,2.19
2023-05-05T06:39:03.280Z,2.02
2023-05-05T06:40:03.294Z,3.06
2023-05-05T06:41:03.359Z,2.08
2023-05-05T06:42:03.407Z,1.81
2023-05-05T06:43:03.461Z,2.52
2023-05-05T06:44:03.481Z,2.12
2023-05-05T06:45:03.514Z,2.17
2023-05-05T06:46:03.551Z,1.81
2023-05-05T06:47:04.153Z,2.12
2023-05-05T06:48:03.696Z,2.17
2023-05-05T06:49:03.641Z,2.10
2023-05-05T06:50:03.744Z,1.95
2023-05-05T06:51:03.754Z,2.36
2023-05-05T06:52:03.812Z,2.07
2023-05-05T06:53:03.788Z,2.72
2023-05-05T06:54:03.809Z,2.78
2023-05-05T06:55:03.926Z,2.75
2023-05-05T06:56:03.881Z,2.72
2023-05-05T06:57:03.899Z,2.89
2023-05-05T06:58:03.931Z,3.10
2023-05-05T06:59:03.952Z,3.14
2023-05-05T07:00:03.988Z,3.15
2023-05-05T07:01:04.085Z,2.85
2023-05-05T07:02:04.118Z,2.30
2023-05-05T07:03:04.147Z,2.63
2023-05-05T07:04:04.167Z,2.77
2023-05-05T07:05:04.185Z,2.60
2023-05-05T07:06:04.230Z,2.44
2023-05-05T07:07:04.260Z,2.44
2023-05-05T07:08:04.216Z,2.91
2023-05-05T07:09:04.266Z,2.70
2023-05-05T07:10:04.310Z,2.42
2023-05-05T07:11:04.367Z,2.91
2023-05-05T07:12:04.330Z,1.95
2023-05-05T07:13:04.420Z,2.32
2023-05-05T07:14:04.391Z,2.59
2023-05-05T07:15:12.394Z,2.25
2023-05-05T07:16:05.434Z,2.36
2023-05-05T07:17:04.372Z,2.26
2023-05-05T07:18:04.411Z,2.38
2023-05-05T07:19:04.361Z,2.35
2023-05-05T07:20:04.372Z,2.13
2023-05-05T07:21:04.464Z,2.83
2023-05-05T07:22:04.391Z,2.99
2023-05-05T07:23:04.347Z,1.86
2023-05-05T07:24:04.368Z,2.26
2023-05-05T07:25:04.332Z,2.06
2023-05-05T07:26:04.346Z,2.60
2023-05-05T07:27:04.410Z,2.72
2023-05-05T07:28:04.347Z,2.13
2023-05-05T07:29:04.357Z,2.00
2023-05-05T07:30:09.115Z,2.31
2023-05-05T07:31:05.289Z,2.73
2023-05-05T07:32:04.335Z,2.22
2023-05-05T07:33:04.363Z,2.31
2023-05-05T07:34:04.256Z,2.47
2023-05-05T07:35:04.275Z,2.50
2023-05-05T07:36:04.264Z,2.91
2023-05-05T07:37:04.245Z,4.74
2023-05-05T07:38:04.237Z,3.29
2023-05-05T07:39:07.668Z,3.67
2023-05-05T07:40:04.216Z,3.31
2023-05-05T07:41:04.222Z,3.52
2023-05-05T07:42:04.624Z,4.14
2023-05-05T07:43:04.357Z,4.35
2023-05-05T07:44:04.227Z,4.47
2023-05-05T07:45:04.235Z,4.20
2023-05-05T07:46:04.249Z,4.49
2023-05-05T07:47:04.615Z,4.35
2023-05-05T07:48:04.251Z,4.09
2023-05-05T07:49:04.223Z,4.20
2023-05-05T07:50:04.216Z,4.34
2023-05-05T07:51:04.192Z,3.85
2023-05-05T07:52:04.168Z,3.77
2023-05-05T07:53:13.523Z,3.35
2023-05-05T07:54:05.170Z,3.66
2023-05-05T07:55:04.112Z,3.54
2023-05-05T07:56:04.136Z,3.50
2023-05-05T07:57:04.116Z,3.87
2023-05-05T07:58:04.147Z,4.37
2023-05-05T07:59:04.171Z,3.42
2023-05-05T08:00:04.081Z,3.70
2023-05-05T08:01:04.098Z,3.28
2023-05-05T08:02:04.077Z,2.70
2023-05-05T08:03:04.275Z,3.16
2023-05-05T08:04:04.236Z,3.65
2023-05-05T08:05:04.080Z,2.77
2023-05-05T08:06:04.069Z,4.00
2023-05-05T08:07:04.057Z,3.10
2023-05-05T08:08:04.062Z,2.52
2023-05-05T08:09:04.041Z,3.37
2023-05-05T08:10:04.032Z,2.49
2023-05-05T08:11:04.041Z,2.41
2023-05-05T08:12:04.026Z,3.04
2023-05-05T08:13:04.025Z,2.69
2023-05-05T08:14:04.019Z,2.11
2023-05-05T08:15:04.288Z,2.51
2023-05-05T08:16:04.119Z,2.46
2023-05-05T08:17:04.115Z,2.65
2023-05-05T08:18:04.175Z,2.59
2023-05-05T08:19:06.252Z,2.45
2023-05-05T08:20:05.144Z,3.02
2023-05-05T08:21:04.103Z,2.45
2023-05-05T08:22:04.108Z,2.15
2023-05-05T08:23:04.119Z,1.76
2023-05-05T08:24:04.104Z,2.52
2023-05-05T08:25:04.114Z,2.32
2023-05-05T08:26:04.109Z,2.45
2023-05-05T08:27:04.111Z,2.57
2023-05-05T08:28:04.098Z,2.64
2023-05-05T08:29:04.093Z,2.56
2023-05-05T08:30:04.093Z,1.77
2023-05-05T08:31:04.152Z,1.83
2023-05-05T08:32:04.070Z,1.95
2023-05-05T08:33:04.126Z,1.89
2023-05-05T08:34:04.062Z,2.58
2023-05-05T08:35:04.029Z,2.79
2023-05-05T08:36:04.036Z,2.22
2023-05-05T08:37:04.061Z,2.20
2023-05-05T08:38:04.027Z,1.91
2023-05-05T08:39:04.045Z,2.16
2023-05-05T08:40:04.070Z,2.03
2023-05-05T08:41:04.082Z,1.82
2023-05-05T08:42:04.137Z,1.94
2023-05-05T08:43:04.148Z,2.08
2023-05-05T08:44:04.180Z,2.18
2023-05-05T08:45:04.209Z,1.96
2023-05-05T08:46:04.225Z,1.94
2023-05-05T08:47:04.784Z,1.80
2023-05-05T08:48:04.385Z,2.02
2023-05-05T08:49:04.333Z,1.64
2023-05-05T08:50:04.383Z,1.68
2023-05-05T08:51:05.568Z,2.50
2023-05-05T08:52:04.443Z,2.10
2023-05-05T08:53:04.550Z,1.83
2023-05-05T08:54:04.533Z,1.69
2023-05-05T08:55:04.588Z,2.15
2023-05-05T08:56:04.633Z,2.08
2023-05-05T08:57:04.673Z,2.18
2023-05-05T08:58:04.702Z,1.10
2023-05-05T08:59:04.762Z,1.50
2023-05-05T09:00:04.838Z,1.67
2023-05-05T09:01:04.918Z,1.52
2023-05-05T09:02:04.955Z,1.66
2023-05-05T09:03:05.280Z,1.53
2023-05-05T09:04:05.046Z,1.45
2023-05-05T09:05:05.164Z,1.60
2023-05-05T09:06:05.135Z,1.87
2023-05-05T09:07:05.190Z,1.64
2023-05-05T09:08:05.670Z,2.29
2023-05-05T09:09:05.282Z,1.60
2023-05-05T09:10:05.337Z,1.91
2023-05-05T09:11:05.357Z,1.33
2023-05-05T09:12:05.402Z,1.83
2023-05-05T09:13:05.556Z,1.83
2023-05-05T09:14:05.553Z,1.25
2023-05-05T09:15:05.771Z,1.29
2023-05-05T09:16:05.665Z,1.49
2023-05-05T09:17:05.708Z,1.56
2023-05-05T09:18:05.784Z,1.83
2023-05-05T09:19:05.769Z,1.73
2023-05-05T09:20:05.824Z,2.06
2023-05-05T09:21:05.875Z,1.62
2023-05-05T09:22:05.945Z,1.64
2023-05-05T09:23:06.141Z,1.83
2023-05-05T09:24:08.631Z,1.53
2023-05-05T09:25:06.374Z,1.60
2023-05-05T09:26:06.036Z,1.59
2023-05-05T09:27:06.066Z,1.86
2023-05-05T09:28:06.147Z,1.72
2023-05-05T09:29:06.034Z,1.57
2023-05-05T09:30:06.043Z,1.52
2023-05-05T09:31:06.056Z,1.88
2023-05-05T09:32:06.036Z,1.65
2023-05-05T09:33:06.079Z,1.88
2023-05-05T09:34:05.998Z,1.96
2023-05-05T09:35:06.149Z,1.91
2023-05-05T09:36:05.983Z,1.71
2023-05-05T09:37:06.220Z,2.41
2023-05-05T09:38:05.992Z,2.06
2023-05-05T09:39:05.961Z,1.60
2023-05-05T09:40:06.009Z,1.81
2023-05-05T09:41:05.945Z,1.93
2023-05-05T09:42:05.964Z,2.00
2023-05-05T09:43:06.171Z,2.10
2023-05-05T09:44:05.930Z,2.07
2023-05-05T09:45:06.017Z,1.94
2023-05-05T09:46:05.970Z,2.52
2023-05-05T09:47:18.130Z,2.10
2023-05-05T09:48:07.191Z,2.73
2023-05-05T09:49:05.906Z,2.37
2023-05-05T09:50:06.010Z,2.20
2023-05-05T09:51:05.861Z,2.13
2023-05-05T09:52:05.898Z,2.73
2023-05-05T09:53:05.893Z,1.88
2023-05-05T09:54:05.863Z,2.66
2023-05-05T09:55:05.869Z,2.50
2023-05-05T09:56:05.837Z,2.42
2023-05-05T09:57:05.874Z,2.68
2023-05-05T09:58:06.156Z,2.90
2023-05-05T09:59:05.898Z,2.59
2023-05-05T10:00:06.027Z,2.81
2023-05-05T10:01:06.062Z,2.42
2023-05-05T10:02:06.073Z,2.53
2023-05-05T10:03:06.174Z,2.19
2023-05-05T10:04:06.150Z,2.75
2023-05-05T10:05:06.292Z,2.84
2023-05-05T10:06:06.291Z,2.72
2023-05-05T10:07:06.398Z,2.62
2023-05-05T10:08:06.660Z,2.56
2023-05-05T10:09:06.440Z,2.53
2023-05-05T10:10:06.574Z,2.08
2023-05-05T10:11:06.515Z,2.20
2023-05-05T10:12:06.536Z,2.44
2023-05-05T10:13:06.653Z,2.77
2023-05-05T10:14:06.628Z,2.86
2023-05-05T10:15:06.728Z,3.52
2023-05-05T10:16:07.748Z,3.01
2023-05-05T10:17:06.761Z,2.70
2023-05-05T10:18:08.470Z,2.53
2023-05-05T10:19:06.853Z,2.96
2023-05-05T10:20:07.074Z,2.68
2023-05-05T10:21:06.956Z,2.62
2023-05-05T10:22:06.983Z,3.24
2023-05-05T10:23:07.176Z,2.86
2023-05-05T10:24:07.038Z,2.34
2023-05-05T10:25:07.091Z,2.24
2023-05-05T10:26:07.138Z,2.48
2023-05-05T10:27:07.167Z,2.76
2023-05-05T10:28:07.199Z,2.60
2023-05-05T10:29:07.208Z,2.30
2023-05-05T10:30:07.563Z,2.58
2023-05-05T10:31:16.527Z,2.72
2023-05-05T10:32:27.129Z,3.05
2023-05-05T10:34:07.318Z,2.25
2023-05-05T10:35:07.250Z,2.85
2023-05-05T10:36:07.258Z,2.04
2023-05-05T10:37:07.234Z,3.02
2023-05-05T10:38:07.247Z,2.95
2023-05-05T10:39:07.302Z,2.51
2023-05-05T10:40:07.609Z,2.57
2023-05-05T10:41:07.217Z,3.40
2023-05-05T10:42:07.256Z,2.55
2023-05-05T10:43:07.200Z,2.53
2023-05-05T10:44:07.194Z,3.10
2023-05-05T10:45:07.217Z,2.49
2023-05-05T10:46:07.241Z,3.15
2023-05-05T10:47:07.211Z,2.55
2023-05-05T10:48:07.239Z,3.08
2023-05-05T10:49:07.182Z,3.38
2023-05-05T10:50:07.372Z,3.04
2023-05-05T10:51:07.194Z,2.61
2023-05-05T10:52:07.176Z,2.84
2023-05-05T10:53:07.160Z,2.29
2023-05-05T10:54:07.202Z,2.94
2023-05-05T10:55:07.247Z,3.21
2023-05-05T10:56:07.143Z,3.70
2023-05-05T10:57:07.103Z,3.00
2023-05-05T10:58:07.128Z,2.59
2023-05-05T10:59:07.138Z,3.17
2023-05-05T11:00:07.357Z,2.61
2023-05-05T11:01:07.101Z,2.65
2023-05-05T11:02:07.073Z,3.05
2023-05-05T11:03:07.153Z,2.49
2023-05-05T11:04:07.151Z,3.15
2023-05-05T11:05:07.118Z,3.51
2023-05-05T11:06:07.098Z,2.85
2023-05-05T11:07:07.066Z,2.07
2023-05-05T11:08:07.067Z,2.28
2023-05-05T11:09:07.043Z,2.64
2023-05-05T11:10:07.287Z,3.07
2023-05-05T11:11:07.031Z,2.79
2023-05-05T11:12:07.082Z,2.42
2023-05-05T11:13:07.102Z,2.11
2023-05-05T11:14:07.007Z,2.74
2023-05-05T11:15:07.039Z,2.80
2023-05-05T11:16:07.016Z,2.62
2023-05-05T11:17:07.008Z,2.44
2023-05-05T11:18:07.959Z,2.37
2023-05-05T11:19:06.978Z,2.84
2023-05-05T11:20:07.147Z,2.74
2023-05-05T11:21:06.993Z,2.44
2023-05-05T11:22:06.968Z,2.41
2023-05-05T11:23:07.051Z,2.27
2023-05-05T11:24:06.982Z,2.32
2023-05-05T11:25:06.946Z,2.33
2023-05-05T11:26:06.942Z,2.67
2023-05-05T11:27:07.068Z,2.56
2023-05-05T11:28:07.202Z,2.29
2023-05-05T11:29:06.917Z,2.63
2023-05-05T11:30:07.123Z,3.02
2023-05-05T11:31:06.941Z,3.17
2023-05-05T11:32:06.915Z,2.93
2023-05-05T11:33:07.365Z,3.05
2023-05-05T11:34:06.920Z,3.10
2023-05-05T11:35:06.891Z,3.17
2023-05-05T11:36:07.358Z,2.97
2023-05-05T11:37:06.911Z,3.18
2023-05-05T11:38:06.922Z,3.25
2023-05-05T11:39:06.912Z,3.00
2023-05-05T11:40:07.000Z,3.10
2023-05-05T11:41:06.849Z,3.43
2023-05-05T11:42:10.488Z,2.60
2023-05-05T11:43:06.879Z,2.96
2023-05-05T11:44:06.848Z,2.75
2023-05-05T11:45:06.846Z,2.95
2023-05-05T11:46:06.918Z,2.43
2023-05-05T11:47:06.834Z,2.92
2023-05-05T11:48:07.064Z,2.62
2023-05-05T11:49:06.820Z,2.70
2023-05-05T11:50:07.001Z,2.92
2023-05-05T11:51:06.812Z,2.02
2023-05-05T11:52:06.825Z,2.61
2023-05-05T11:53:06.801Z,2.63
2023-05-05T11:54:06.778Z,2.24
2023-05-05T11:55:06.780Z,2.98
2023-05-05T11:56:06.839Z,2.44
2023-05-05T11:57:06.770Z,3.06
2023-05-05T11:58:06.731Z,3.23
2023-05-05T11:59:06.810Z,2.51
2023-05-05T12:00:06.810Z,2.37
2023-05-05T12:01:06.709Z,2.28
2023-05-05T12:02:06.765Z,2.62
2023-05-05T12:03:06.857Z,2.43
2023-05-05T12:04:06.833Z,2.24
2023-05-05T12:05:06.692Z,2.62
2023-05-05T12:06:06.673Z,2.66
2023-05-05T12:07:06.666Z,2.92
2023-05-05T12:08:06.705Z,2.43
2023-05-05T12:09:06.657Z,2.37
2023-05-05T12:10:06.843Z,2.39
2023-05-05T12:11:06.705Z,2.50
2023-05-05T12:12:06.733Z,2.36
2023-05-05T12:13:06.806Z,2.44
2023-05-05T12:14:06.868Z,2.18
2023-05-05T12:15:07.046Z,2.00
2023-05-05T12:16:06.984Z,1.98
2023-05-05T12:17:07.033Z,2.01
2023-05-05T12:18:07.118Z,2.32
2023-05-05T12:19:07.159Z,2.60
2023-05-05T12:20:07.274Z,2.38
2023-05-05T12:21:07.303Z,2.34
2023-05-05T12:22:07.321Z,2.33
2023-05-05T12:23:07.383Z,2.27
2023-05-05T12:24:07.421Z,2.33
2023-05-05T12:25:07.503Z,2.38
2023-05-05T12:26:07.543Z,2.13
2023-05-05T12:27:07.632Z,2.04
2023-05-05T12:28:07.674Z,1.80
2023-05-05T12:29:07.730Z,1.74
2023-05-05T12:30:07.933Z,2.29
2023-05-05T12:31:07.958Z,2.57
2023-05-05T12:32:07.947Z,2.37
2023-05-05T12:33:08.037Z,1.87
2023-05-05T12:34:08.050Z,2.99
2023-05-05T12:35:08.113Z,2.11
2023-05-05T12:36:08.116Z,2.35
2023-05-05T12:37:08.237Z,1.82
2023-05-05T12:38:08.281Z,2.29
2023-05-05T12:39:08.362Z,2.17
2023-05-05T12:40:08.536Z,2.05
2023-05-05T12:41:08.472Z,2.27
2023-05-05T12:42:08.534Z,2.16
2023-05-05T12:43:08.572Z,1.96
2023-05-05T12:44:08.607Z,2.09
2023-05-05T12:45:08.652Z,1.88
2023-05-05T12:46:08.884Z,1.85
2023-05-05T12:47:09.885Z,2.27
2023-05-05T12:48:08.822Z,1.86
2023-05-05T12:49:08.872Z,1.86
2023-05-05T12:50:09.067Z,1.85
2023-05-05T12:51:08.988Z,2.12
2023-05-05T12:52:09.059Z,1.62
2023-05-05T12:53:09.113Z,1.72
2023-05-05T12:54:09.130Z,2.38
2023-05-05T12:55:09.390Z,2.37
2023-05-05T12:56:09.225Z,1.94
2023-05-05T12:57:09.291Z,1.61
2023-05-05T12:58:09.359Z,1.88
2023-05-05T12:59:09.385Z,2.43
2023-05-05T13:00:09.758Z,1.98
2023-05-05T13:01:09.478Z,2.12
2023-05-05T13:02:09.595Z,1.90
2023-05-05T13:03:09.764Z,1.98
2023-05-05T13:04:09.649Z,1.84
2023-05-05T13:05:09.886Z,1.97
2023-05-05T13:06:09.711Z,1.88
2023-05-05T13:07:09.720Z,1.67
2023-05-05T13:08:09.753Z,2.14
2023-05-05T13:09:09.721Z,1.83
2023-05-05T13:10:09.730Z,2.01
2023-05-05T13:11:09.744Z,2.16
2023-05-05T13:12:09.764Z,2.39
2023-05-05T13:13:09.874Z,1.79
2023-05-05T13:14:09.843Z,1.95
2023-05-05T13:15:10.115Z,2.04
2023-05-05T13:16:09.940Z,1.71
2023-05-05T13:17:09.924Z,1.77
2023-05-05T13:18:09.970Z,1.83
2023-05-05T13:19:10.051Z,1.63
2023-05-05T13:20:10.028Z,1.68